EDFM

Mannheim City Airport

Mannheim, Germany
METAR EDFM 170820Z 34009KT CAVOK 04/00 Q1029
Observed Flight Rules
Nov-17 @ 08:20 UTC (38 minutes ago) Visual Flight Rules
Wind Visibility Clouds
340° at 9 knots 10,000+ meters
  • Clear skies
Temperatures Readings
Current 4°C / 39°F
Dewpoint 0°C / 32°F
Humidity 75%
Altimeter 30.38" Hg
Pressure 1029 hPa
Elevation 100
METAR EDFM 170820Z 34009KT CAVOK 04/00 Q1029
Observed Flight Rules
Nov-17 @ 08:20 UTC
(38 minutes ago)
VFR
Wind Visibility
340° at 9 knots 10,000+ meters
Clouds
  • Clear skies
Temperature Dewpoint
4°C / 39°F 0°C / 32°F
Humidity Altimeter Pressure
75% 30.38" Hg 1029 hPa